createdAt,value
2022-10-06T00:00:31.869Z,3.20
2022-10-06T00:03:54.275Z,2.90
2022-10-06T00:07:16.921Z,3.45
2022-10-06T00:10:40.429Z,3.30
2022-10-06T00:14:02.652Z,2.83
2022-10-06T00:17:24.955Z,2.70
2022-10-06T00:20:54.841Z,2.88
2022-10-06T00:24:17.232Z,2.95
2022-10-06T00:27:41.913Z,2.67
2022-10-06T00:31:04.367Z,2.90
2022-10-06T00:34:27.494Z,2.28
2022-10-06T00:37:49.745Z,2.50
2022-10-06T00:41:14.901Z,1.83
2022-10-06T00:48:22.356Z,2.70
2022-10-06T00:51:51.772Z,2.28
2022-10-06T00:55:14.342Z,2.50
2022-10-06T00:58:37.841Z,2.03
2022-10-06T01:02:01.531Z,2.38
2022-10-06T01:05:30.565Z,1.98
2022-10-06T01:08:53.221Z,1.90
2022-10-06T01:12:16.456Z,1.65
2022-10-06T01:15:51.572Z,1.83
2022-10-06T01:19:26.687Z,2.13
2022-10-06T01:23:00.240Z,1.80
2022-10-06T01:26:24.775Z,1.83
2022-10-06T01:29:52.169Z,1.60
2022-10-06T01:33:14.466Z,1.60
2022-10-06T01:36:36.730Z,1.67
2022-10-06T01:39:59.081Z,1.55
2022-10-06T01:43:21.662Z,1.85
2022-10-06T01:46:43.971Z,1.45
2022-10-06T01:50:07.195Z,1.40
2022-10-06T01:53:29.952Z,1.30
2022-10-06T01:56:52.209Z,1.65
2022-10-06T02:00:16.403Z,1.85
2022-10-06T02:03:39.814Z,1.67
2022-10-06T02:07:02.526Z,1.30
2022-10-06T02:10:25.193Z,1.60
2022-10-06T02:13:48.493Z,1.70
2022-10-06T02:17:10.795Z,1.33
2022-10-06T02:20:33.839Z,1.60
2022-10-06T02:23:56.198Z,1.90
2022-10-06T02:27:18.494Z,1.30
2022-10-06T02:30:40.842Z,1.70
2022-10-06T02:34:03.436Z,1.27
2022-10-06T02:37:25.754Z,1.30
2022-10-06T02:40:48.161Z,1.30
2022-10-06T02:44:10.520Z,1.23
2022-10-06T02:47:35.303Z,1.38
2022-10-06T02:51:03.671Z,1.27
2022-10-06T02:54:26.062Z,1.40
2022-10-06T02:57:48.297Z,1.48
2022-10-06T03:01:13.177Z,1.27
2022-10-06T03:04:35.534Z,1.15
2022-10-06T03:07:57.779Z,1.20
2022-10-06T03:11:21.954Z,1.10
2022-10-06T03:14:44.291Z,1.20
2022-10-06T03:18:06.874Z,1.45
2022-10-06T03:21:31.427Z,1.10
2022-10-06T03:24:53.760Z,1.35
2022-10-06T03:28:17.118Z,1.30
2022-10-06T03:31:40.262Z,1.05
2022-10-06T03:35:03.322Z,1.08
2022-10-06T03:38:26.372Z,1.20
2022-10-06T03:41:49.047Z,0.93
2022-10-06T03:45:11.505Z,1.05
2022-10-06T03:48:35.541Z,1.10
2022-10-06T03:51:58.116Z,1.00
2022-10-06T03:55:25.390Z,1.77
2022-10-06T03:58:52.002Z,1.02
2022-10-06T04:02:14.553Z,1.20
2022-10-06T04:05:36.801Z,0.90
2022-10-06T04:09:00.007Z,1.15
2022-10-06T04:12:22.830Z,1.00
2022-10-06T04:15:46.797Z,1.52
2022-10-06T04:19:11.273Z,1.00
2022-10-06T04:22:36.693Z,1.02
2022-10-06T04:26:00.344Z,0.95
2022-10-06T04:29:23.447Z,1.02
2022-10-06T04:32:49.897Z,1.17
2022-10-06T04:36:22.690Z,0.85
2022-10-06T04:39:46.347Z,1.00
2022-10-06T04:43:08.804Z,1.20
2022-10-06T04:46:47.659Z,0.90
2022-10-06T04:50:11.430Z,0.95
2022-10-06T04:53:44.241Z,1.02
2022-10-06T04:57:07.736Z,0.80
2022-10-06T05:00:30.052Z,0.85
2022-10-06T05:03:58.271Z,0.88
2022-10-06T05:07:22.572Z,0.90
2022-10-06T05:10:44.864Z,0.80
2022-10-06T05:14:07.606Z,0.90
2022-10-06T05:17:33.081Z,0.80
2022-10-06T05:21:05.782Z,0.70
2022-10-06T05:24:29.049Z,0.80
2022-10-06T05:27:51.559Z,0.90
2022-10-06T05:31:15.675Z,0.80
2022-10-06T05:34:37.951Z,0.70
2022-10-06T05:38:01.129Z,1.05
2022-10-06T05:41:26.594Z,1.15
2022-10-06T05:44:49.682Z,1.10
2022-10-06T05:48:12.003Z,1.17
2022-10-06T05:51:35.373Z,0.98
2022-10-06T05:55:04.102Z,1.00
2022-10-06T05:58:28.462Z,1.13
2022-10-06T06:01:52.147Z,1.20
2022-10-06T06:05:26.178Z,1.00
2022-10-06T06:08:52.658Z,0.80
2022-10-06T06:12:16.148Z,1.20
2022-10-06T06:16:01.442Z,0.90
2022-10-06T06:19:28.965Z,1.00
2022-10-06T06:22:54.431Z,0.73
2022-10-06T06:26:23.565Z,0.90
2022-10-06T06:29:46.508Z,0.75
2022-10-06T06:33:10.864Z,0.80
2022-10-06T06:36:40.539Z,1.02
2022-10-06T06:40:06.584Z,0.65
2022-10-06T06:43:32.614Z,0.73
2022-10-06T06:47:09.591Z,0.88
2022-10-06T06:50:32.505Z,0.70
2022-10-06T06:53:55.249Z,0.90
2022-10-06T06:57:18.234Z,0.70
2022-10-06T07:00:42.390Z,0.52
2022-10-06T07:04:06.103Z,0.80
2022-10-06T07:07:31.042Z,0.80
2022-10-06T07:10:56.574Z,0.70
2022-10-06T07:14:18.946Z,0.70
2022-10-06T07:18:02.043Z,0.95
2022-10-06T07:21:43.777Z,0.65
2022-10-06T07:25:26.538Z,0.90
2022-10-06T07:29:00.051Z,0.82
2022-10-06T07:32:23.825Z,0.95
2022-10-06T07:35:46.134Z,0.70
2022-10-06T07:39:10.460Z,0.75
2022-10-06T07:42:47.851Z,0.70
2022-10-06T07:46:14.675Z,0.73
2022-10-06T07:49:58.348Z,0.60
2022-10-06T07:53:20.675Z,0.77
2022-10-06T07:56:48.570Z,0.80
2022-10-06T08:00:12.667Z,0.82
2022-10-06T08:03:36.998Z,0.85
2022-10-06T08:06:59.305Z,0.70
2022-10-06T08:10:21.614Z,0.82
2022-10-06T08:13:47.556Z,1.00
2022-10-06T08:17:09.726Z,0.95
2022-10-06T08:20:31.940Z,0.90
2022-10-06T08:23:55.853Z,0.60
2022-10-06T08:27:18.016Z,1.20
2022-10-06T08:30:40.678Z,0.98
2022-10-06T08:34:02.876Z,1.05
2022-10-06T08:37:26.805Z,0.77
2022-10-06T08:40:49.278Z,0.57
2022-10-06T08:44:18.444Z,0.60
2022-10-06T08:47:51.021Z,1.33
2022-10-06T08:51:38.877Z,0.98
2022-10-06T08:55:20.093Z,0.70
2022-10-06T08:58:55.621Z,0.70
2022-10-06T09:02:42.023Z,0.80
2022-10-06T09:07:11.189Z,0.63
2022-10-06T09:10:58.331Z,0.80
2022-10-06T09:14:31.094Z,1.02
2022-10-06T09:18:00.304Z,0.95
2022-10-06T09:21:40.276Z,0.77
2022-10-06T09:25:22.764Z,0.80
2022-10-06T09:28:46.387Z,0.82
2022-10-06T09:32:10.976Z,0.75
2022-10-06T09:35:33.271Z,0.80
2022-10-06T09:38:57.842Z,0.98
2022-10-06T09:42:35.561Z,1.00
2022-10-06T09:46:19.127Z,0.65
2022-10-06T09:49:41.462Z,0.80
2022-10-06T09:53:10.275Z,0.65
2022-10-06T09:56:32.967Z,0.77
2022-10-06T09:59:59.718Z,0.80
2022-10-06T10:03:26.013Z,0.73
2022-10-06T10:06:48.803Z,0.70
2022-10-06T10:10:25.218Z,0.65
2022-10-06T10:13:52.343Z,0.80
2022-10-06T10:17:22.191Z,0.70
2022-10-06T10:20:54.470Z,1.00
2022-10-06T10:24:28.432Z,0.80
2022-10-06T10:28:17.483Z,0.70
2022-10-06T10:31:54.739Z,1.48
2022-10-06T10:35:27.630Z,0.70
2022-10-06T10:38:50.141Z,0.57
2022-10-06T10:42:31.407Z,0.75
2022-10-06T10:46:02.815Z,0.63
2022-10-06T10:49:29.857Z,0.73
2022-10-06T10:52:57.098Z,0.80
2022-10-06T10:56:23.277Z,0.80
2022-10-06T11:00:22.834Z,0.60
2022-10-06T11:04:00.349Z,0.77
2022-10-06T11:07:49.745Z,0.90
2022-10-06T11:11:49.845Z,0.80
2022-10-06T11:15:55.606Z,0.80
2022-10-06T11:20:03.811Z,0.60
2022-10-06T11:23:49.104Z,0.75
2022-10-06T11:27:39.037Z,0.80
2022-10-06T11:31:26.726Z,0.73
2022-10-06T11:34:49.946Z,0.80
2022-10-06T11:38:41.254Z,0.90
2022-10-06T11:42:12.709Z,1.00
2022-10-06T11:45:46.840Z,0.70
2022-10-06T11:49:30.390Z,0.98
2022-10-06T11:52:53.186Z,0.82
2022-10-06T11:56:18.236Z,0.82
2022-10-06T12:03:33.489Z,0.73
2022-10-06T12:06:57.990Z,0.73
2022-10-06T12:10:29.363Z,0.70
2022-10-06T12:15:06.525Z,0.85
2022-10-06T12:17:41.758Z,0.70
2022-10-06T12:21:29.197Z,0.80
2022-10-06T12:25:11.625Z,0.73
2022-10-06T12:28:44.602Z,0.85
2022-10-06T12:32:20.934Z,0.80
2022-10-06T12:35:44.874Z,0.82
2022-10-06T12:39:25.750Z,0.57
2022-10-06T12:42:48.000Z,0.55
2022-10-06T12:46:25.804Z,0.88
2022-10-06T12:50:00.857Z,0.70
2022-10-06T12:53:33.395Z,0.60
2022-10-06T12:56:59.749Z,0.93
2022-10-06T13:00:52.423Z,0.90
2022-10-06T13:04:38.282Z,0.80
2022-10-06T13:08:21.220Z,0.77
2022-10-06T13:11:43.500Z,0.60
2022-10-06T13:15:34.450Z,1.00
2022-10-06T13:18:59.119Z,0.82
2022-10-06T13:22:21.338Z,0.57
2022-10-06T13:25:47.519Z,0.65
2022-10-06T13:29:21.400Z,0.80
2022-10-06T13:32:44.030Z,0.50
2022-10-06T13:36:08.607Z,0.60
2022-10-06T13:39:31.907Z,0.77
2022-10-06T13:42:55.927Z,0.63
2022-10-06T13:46:28.620Z,0.80
2022-10-06T13:49:51.009Z,0.75
2022-10-06T13:53:31.377Z,0.77
2022-10-06T13:56:53.607Z,0.68
2022-10-06T14:00:15.924Z,0.90
2022-10-06T14:03:38.198Z,0.75
2022-10-06T14:07:01.943Z,0.93
2022-10-06T14:10:55.342Z,1.08
2022-10-06T14:14:18.121Z,1.42
2022-10-06T14:17:41.003Z,1.10
2022-10-06T14:21:35.496Z,1.40
2022-10-06T14:24:57.740Z,1.02
2022-10-06T14:28:19.995Z,1.25
2022-10-06T14:31:43.068Z,1.30
2022-10-06T14:35:07.226Z,1.33
2022-10-06T14:38:29.811Z,1.08
2022-10-06T14:41:52.023Z,1.08
2022-10-06T14:45:14.301Z,1.10
2022-10-06T14:48:36.612Z,0.98
2022-10-06T14:51:58.873Z,1.20
2022-10-06T14:55:21.071Z,1.40
2022-10-06T14:58:44.026Z,1.20
2022-10-06T15:02:06.608Z,0.88
2022-10-06T15:05:30.096Z,1.10
2022-10-06T15:08:53.859Z,1.17
2022-10-06T15:12:16.074Z,1.40
2022-10-06T15:15:38.927Z,0.90
2022-10-06T15:19:04.536Z,1.00
2022-10-06T15:22:26.791Z,1.20
2022-10-06T15:26:11.586Z,1.10
2022-10-06T15:29:35.149Z,1.02
2022-10-06T15:32:57.372Z,0.90
2022-10-06T15:36:21.569Z,1.10
2022-10-06T15:39:44.339Z,1.02
2022-10-06T15:43:06.572Z,1.15
2022-10-06T15:46:31.818Z,1.25
2022-10-06T15:53:16.231Z,1.02
2022-10-06T15:56:38.727Z,0.73
2022-10-06T16:00:00.981Z,0.90
2022-10-06T16:03:40.743Z,0.98
2022-10-06T16:07:04.220Z,0.90
2022-10-06T16:10:26.418Z,0.70
2022-10-06T16:13:48.629Z,0.77
2022-10-06T16:17:11.593Z,1.30
2022-10-06T16:20:33.794Z,1.00
2022-10-06T16:23:56.651Z,0.90
2022-10-06T16:27:18.963Z,0.80
2022-10-06T16:30:41.222Z,0.70
2022-10-06T16:34:03.822Z,1.10
2022-10-06T16:37:26.038Z,1.15
2022-10-06T16:40:58.462Z,1.20
2022-10-06T16:44:20.940Z,1.05
2022-10-06T16:47:43.293Z,0.82
2022-10-06T16:51:20.444Z,0.63
2022-10-06T16:54:42.687Z,2.20
2022-10-06T16:58:04.857Z,4.45
2022-10-06T17:01:29.804Z,5.45
2022-10-06T17:04:53.872Z,4.45
2022-10-06T17:08:16.099Z,4.68
2022-10-06T17:11:38.682Z,5.32
2022-10-06T17:15:00.853Z,4.50
2022-10-06T17:18:23.094Z,4.40
2022-10-06T17:21:48.159Z,3.65
2022-10-06T17:25:12.961Z,4.00
2022-10-06T17:28:36.483Z,3.35
2022-10-06T17:32:00.189Z,3.47
2022-10-06T17:35:22.947Z,3.15
2022-10-06T17:38:48.162Z,3.40
2022-10-06T17:42:11.513Z,2.95
2022-10-06T17:45:38.436Z,2.90
2022-10-06T17:49:07.544Z,2.42
2022-10-06T17:52:30.366Z,2.33
2022-10-06T17:55:55.128Z,3.38
2022-10-06T17:59:18.803Z,2.67
2022-10-06T18:02:41.629Z,2.40
2022-10-06T18:06:04.920Z,2.10
2022-10-06T18:09:27.179Z,1.65
2022-10-06T18:12:50.742Z,1.80
2022-10-06T18:16:18.437Z,2.10
2022-10-06T18:19:40.650Z,1.90
2022-10-06T18:23:02.804Z,1.70
2022-10-06T18:26:25.147Z,2.00
2022-10-06T18:29:47.466Z,2.10
2022-10-06T18:36:52.756Z,1.40
2022-10-06T18:40:15.121Z,1.90
2022-10-06T18:43:37.913Z,2.85
2022-10-06T18:47:18.498Z,1.80
2022-10-06T18:50:40.730Z,1.58
2022-10-06T18:54:06.397Z,1.48
2022-10-06T18:57:28.562Z,1.52
2022-10-06T19:00:50.896Z,1.35
2022-10-06T19:04:16.508Z,1.40
2022-10-06T19:07:38.681Z,1.35
2022-10-06T19:11:24.211Z,1.80
2022-10-06T19:14:47.842Z,1.65
2022-10-06T19:18:10.222Z,1.23
2022-10-06T19:21:32.554Z,1.45
2022-10-06T19:24:54.745Z,1.45
2022-10-06T19:28:16.985Z,1.85
2022-10-06T19:31:42.040Z,1.92
2022-10-06T19:35:09.249Z,1.48
2022-10-06T19:38:36.686Z,1.50
2022-10-06T19:42:17.993Z,1.35
2022-10-06T19:45:40.282Z,1.40
2022-10-06T19:49:05.729Z,1.42
2022-10-06T19:52:28.122Z,1.63
2022-10-06T19:55:50.489Z,1.40
2022-10-06T19:59:18.754Z,1.30
2022-10-06T20:02:43.230Z,1.65
2022-10-06T20:06:11.995Z,1.73
2022-10-06T20:09:34.376Z,1.38
2022-10-06T20:12:56.685Z,1.58
2022-10-06T20:16:20.420Z,1.27
2022-10-06T20:19:42.678Z,1.23
2022-10-06T20:23:04.842Z,1.27
2022-10-06T20:26:38.490Z,0.93
2022-10-06T20:30:00.682Z,1.60
2022-10-06T20:33:22.920Z,1.35
2022-10-06T20:36:45.947Z,1.60
2022-10-06T20:40:28.108Z,1.60
2022-10-06T20:43:53.797Z,1.45
2022-10-06T20:47:18.813Z,1.80
2022-10-06T20:54:04.501Z,1.63
2022-10-06T20:57:32.867Z,1.50
2022-10-06T21:01:02.184Z,1.50
2022-10-06T21:04:24.472Z,1.50
2022-10-06T21:07:46.887Z,1.40
2022-10-06T21:11:09.773Z,1.50
2022-10-06T21:14:33.942Z,1.70
2022-10-06T21:17:56.168Z,1.23
2022-10-06T21:21:19.610Z,1.60
2022-10-06T21:24:41.849Z,1.48
2022-10-06T21:28:04.759Z,1.63
2022-10-06T21:31:28.082Z,1.63
2022-10-06T21:34:50.451Z,2.05
2022-10-06T21:38:12.735Z,1.77
2022-10-06T21:41:39.147Z,1.65
2022-10-06T21:45:01.533Z,1.70
2022-10-06T21:48:23.765Z,1.70
2022-10-06T21:51:50.964Z,1.30
2022-10-06T21:55:13.226Z,1.67
2022-10-06T21:58:35.425Z,1.60
2022-10-06T22:01:57.804Z,1.52
2022-10-06T22:05:20.067Z,2.00
2022-10-06T22:08:42.639Z,1.48
2022-10-06T22:12:04.936Z,1.83
2022-10-06T22:15:27.239Z,1.80
2022-10-06T22:18:50.076Z,1.63
2022-10-06T22:22:12.325Z,1.55
2022-10-06T22:25:34.567Z,1.58
2022-10-06T22:28:58.428Z,1.33
2022-10-06T22:32:22.993Z,1.60
2022-10-06T22:35:51.467Z,1.60
2022-10-06T22:39:13.656Z,1.67
2022-10-06T22:42:35.807Z,1.55
2022-10-06T22:45:58.115Z,1.75
2022-10-06T22:49:20.329Z,1.38
2022-10-06T22:52:42.486Z,1.40
2022-10-06T22:56:04.730Z,1.63
2022-10-06T22:59:26.917Z,1.30
2022-10-06T23:02:49.240Z,1.65
2022-10-06T23:06:14.539Z,1.55
2022-10-06T23:09:36.792Z,1.70
2022-10-06T23:12:59.753Z,1.17
2022-10-06T23:16:22.261Z,1.50
2022-10-06T23:19:44.513Z,1.17
2022-10-06T23:23:06.781Z,1.55
2022-10-06T23:26:29.137Z,1.30
2022-10-06T23:29:51.465Z,1.33
2022-10-06T23:33:13.641Z,1.40
2022-10-06T23:36:35.805Z,1.35
2022-10-06T23:39:58.071Z,1.42
2022-10-06T23:43:20.672Z,1.30
2022-10-06T23:46:42.955Z,1.40
2022-10-06T23:50:05.618Z,1.33
2022-10-06T23:53:28.899Z,1.30
2022-10-06T23:56:53.055Z,1.00
